createdAt,value
2019-03-15T00:01:28.282Z,8.71
2019-03-15T00:03:58.735Z,8.45
2019-03-15T00:06:29.079Z,8.70
2019-03-15T00:08:59.814Z,8.78
2019-03-15T00:11:30.259Z,8.86
2019-03-15T00:14:00.586Z,8.99
2019-03-15T00:16:31.079Z,9.04
2019-03-15T00:19:01.443Z,8.88
2019-03-15T00:21:31.785Z,8.90
2019-03-15T00:24:02.135Z,8.85
2019-03-15T00:26:32.502Z,8.97
2019-03-15T00:29:02.845Z,8.75
2019-03-15T00:31:33.196Z,8.79
2019-03-15T00:34:05.135Z,8.44
2019-03-15T00:36:35.475Z,8.15
2019-03-15T00:39:06.466Z,8.22
2019-03-15T00:41:36.811Z,8.03
2019-03-15T00:44:07.160Z,7.85
2019-03-15T00:46:37.507Z,8.03
2019-03-15T00:49:07.835Z,7.84
2019-03-15T00:51:38.192Z,7.48
2019-03-15T00:54:08.644Z,7.73
2019-03-15T00:56:38.979Z,7.86
2019-03-15T00:59:10.302Z,8.08
2019-03-15T01:01:40.649Z,7.95
2019-03-15T01:04:11.043Z,8.11
2019-03-15T01:06:41.390Z,7.66
2019-03-15T01:09:11.727Z,7.81
2019-03-15T01:11:45.395Z,7.65
2019-03-15T01:14:14.279Z,7.95
2019-03-15T01:16:44.631Z,7.87
2019-03-15T01:19:14.961Z,7.66
2019-03-15T01:21:45.330Z,7.58
2019-03-15T01:24:15.677Z,7.52
2019-03-15T01:26:46.030Z,7.38
2019-03-15T01:29:16.392Z,7.50
2019-03-15T01:31:46.744Z,7.60
2019-03-15T01:34:17.065Z,7.34
2019-03-15T01:36:47.392Z,7.32
2019-03-15T01:39:17.754Z,7.27
2019-03-15T01:41:48.099Z,7.44
2019-03-15T01:44:19.389Z,7.24
2019-03-15T01:46:49.728Z,7.33
2019-03-15T01:49:20.139Z,7.39
2019-03-15T01:51:50.448Z,7.22
2019-03-15T01:54:20.802Z,7.33
2019-03-15T01:56:51.159Z,7.44
2019-03-15T01:59:21.538Z,7.63
2019-03-15T02:01:51.890Z,7.34
2019-03-15T02:04:22.249Z,7.28
2019-03-15T02:06:52.611Z,7.36
2019-03-15T02:09:22.996Z,7.21
2019-03-15T02:11:53.335Z,7.06
2019-03-15T02:14:23.679Z,7.15
2019-03-15T02:16:54.030Z,6.96
2019-03-15T02:19:24.375Z,6.97
2019-03-15T02:21:54.717Z,7.05
2019-03-15T02:24:25.055Z,7.08
2019-03-15T02:26:55.400Z,7.18
2019-03-15T02:29:25.785Z,7.10
2019-03-15T02:31:56.949Z,7.14
2019-03-15T02:34:27.579Z,6.89
2019-03-15T02:36:58.126Z,6.82
2019-03-15T02:39:28.474Z,6.89
2019-03-15T02:41:59.882Z,7.07
2019-03-15T02:44:30.206Z,7.07
2019-03-15T02:47:00.551Z,6.98
2019-03-15T02:49:30.911Z,6.85
2019-03-15T02:52:01.446Z,6.86
2019-03-15T02:54:31.797Z,6.92
2019-03-15T02:57:02.170Z,6.99
2019-03-15T02:59:32.530Z,6.79
2019-03-15T03:02:02.850Z,6.88
2019-03-15T03:04:33.295Z,6.83
2019-03-15T03:07:03.636Z,7.02
2019-03-15T03:09:34.236Z,6.81
2019-03-15T03:12:04.768Z,6.94
2019-03-15T03:14:35.129Z,6.73
2019-03-15T03:17:05.487Z,6.83
2019-03-15T03:19:35.863Z,6.70
2019-03-15T03:22:06.203Z,6.65
2019-03-15T03:24:36.534Z,6.81
2019-03-15T03:27:07.464Z,6.89
2019-03-15T03:29:38.014Z,6.83
2019-03-15T03:32:08.393Z,6.99
2019-03-15T03:34:40.487Z,7.13
2019-03-15T03:37:10.821Z,6.95
2019-03-15T03:39:42.247Z,6.82
2019-03-15T03:42:12.585Z,6.76
2019-03-15T03:44:42.910Z,6.87
2019-03-15T03:47:13.243Z,7.04
2019-03-15T03:49:43.621Z,7.42
2019-03-15T03:52:13.942Z,7.39
2019-03-15T03:54:44.283Z,7.31
2019-03-15T03:57:14.628Z,7.23
2019-03-15T03:59:44.995Z,7.31
2019-03-15T04:02:15.341Z,7.30
2019-03-15T04:04:46.765Z,7.26
2019-03-15T04:07:17.110Z,7.27
2019-03-15T04:09:47.451Z,7.16
2019-03-15T04:12:17.801Z,7.13
2019-03-15T04:14:48.183Z,7.23
2019-03-15T04:17:18.524Z,7.12
2019-03-15T04:19:48.849Z,7.30
2019-03-15T04:22:19.190Z,7.19
2019-03-15T04:24:49.533Z,7.13
2019-03-15T04:27:19.926Z,7.15
2019-03-15T04:29:50.197Z,7.16
2019-03-15T04:32:20.540Z,7.00
2019-03-15T04:34:50.886Z,6.77
2019-03-15T04:37:22.822Z,6.82
2019-03-15T04:39:53.471Z,7.03
2019-03-15T04:42:23.823Z,6.97
2019-03-15T04:45:48.794Z,6.85
2019-03-15T04:48:37.127Z,6.97
2019-03-15T04:51:07.465Z,6.96
2019-03-15T04:53:37.822Z,6.98
2019-03-15T04:56:08.152Z,7.00
2019-03-15T04:58:38.519Z,6.97
2019-03-15T05:01:08.880Z,6.97
2019-03-15T05:03:39.217Z,6.93
2019-03-15T05:06:09.567Z,6.93
2019-03-15T05:08:40.071Z,6.96
2019-03-15T05:11:11.388Z,6.75
2019-03-15T05:13:41.723Z,6.83
2019-03-15T05:16:12.104Z,6.85
2019-03-15T05:18:42.598Z,6.89
2019-03-15T05:21:12.993Z,6.85
2019-03-15T05:23:43.329Z,6.90
2019-03-15T05:26:13.682Z,7.03
2019-03-15T05:28:44.035Z,6.92
2019-03-15T05:31:14.797Z,6.80
2019-03-15T05:33:45.165Z,6.79
2019-03-15T05:36:15.507Z,6.88
2019-03-15T05:38:47.279Z,6.88
2019-03-15T05:41:17.619Z,6.83
2019-03-15T05:43:47.885Z,6.91
2019-03-15T05:46:18.217Z,6.91
2019-03-15T05:48:48.578Z,6.86
2019-03-15T05:51:18.929Z,6.83
2019-03-15T05:53:49.283Z,6.84
2019-03-15T05:56:19.626Z,6.80
2019-03-15T05:58:49.951Z,6.77
2019-03-15T06:01:20.483Z,7.04
2019-03-15T06:03:50.836Z,7.01
2019-03-15T06:06:21.192Z,6.95
2019-03-15T06:08:51.529Z,7.10
2019-03-15T06:11:21.893Z,7.01
2019-03-15T06:13:52.231Z,7.01
2019-03-15T06:16:22.584Z,6.93
2019-03-15T06:18:52.928Z,6.83
2019-03-15T06:21:23.786Z,6.97
2019-03-15T06:23:54.168Z,6.95
2019-03-15T06:26:24.513Z,6.90
2019-03-15T06:28:54.879Z,7.14
2019-03-15T06:31:25.227Z,7.01
2019-03-15T06:33:55.559Z,7.04
2019-03-15T06:36:25.910Z,6.92
2019-03-15T06:38:56.253Z,6.96
2019-03-15T06:41:26.625Z,7.13
2019-03-15T06:43:57.184Z,7.03
2019-03-15T06:46:27.537Z,7.22
2019-03-15T06:48:57.906Z,7.21
2019-03-15T06:51:28.271Z,7.23
2019-03-15T06:54:10.784Z,7.11
2019-03-15T06:56:30.708Z,6.95
2019-03-15T06:59:01.082Z,7.00
2019-03-15T07:01:31.825Z,6.95
2019-03-15T07:04:02.557Z,6.94
2019-03-15T07:06:33.076Z,7.01
2019-03-15T07:09:04.810Z,6.92
2019-03-15T07:11:35.209Z,6.86
2019-03-15T07:14:05.637Z,6.94
2019-03-15T07:16:38.151Z,7.09
2019-03-15T07:19:08.136Z,7.30
2019-03-15T07:21:38.561Z,7.31
2019-03-15T07:24:09.971Z,7.32
2019-03-15T07:26:43.622Z,7.31
2019-03-15T07:29:12.609Z,7.37
2019-03-15T07:31:43.024Z,7.43
2019-03-15T07:34:14.013Z,7.44
2019-03-15T07:36:44.666Z,7.50
2019-03-15T07:39:15.043Z,7.44
2019-03-15T07:41:45.359Z,7.42
2019-03-15T07:44:15.691Z,7.59
2019-03-15T07:46:46.043Z,7.70
2019-03-15T07:49:16.575Z,7.75
2019-03-15T07:51:46.938Z,7.59
2019-03-15T07:54:17.702Z,7.79
2019-03-15T07:56:48.080Z,8.15
2019-03-15T07:59:18.559Z,7.97
2019-03-15T08:01:48.945Z,8.12
2019-03-15T08:04:19.384Z,8.15
2019-03-15T08:06:49.736Z,8.02
2019-03-15T08:09:20.183Z,8.01
2019-03-15T08:11:50.696Z,7.88
2019-03-15T08:14:21.270Z,7.74
2019-03-15T08:16:51.771Z,7.76
2019-03-15T08:19:22.298Z,7.61
2019-03-15T08:21:52.748Z,7.66
2019-03-15T08:24:23.123Z,7.64
2019-03-15T08:26:53.471Z,7.61
2019-03-15T08:29:23.811Z,7.60
2019-03-15T08:31:54.154Z,7.62
2019-03-15T08:34:24.543Z,7.70
2019-03-15T08:36:54.895Z,7.78
2019-03-15T08:39:25.253Z,7.70
2019-03-15T08:41:55.599Z,7.86
2019-03-15T08:44:25.948Z,7.99
2019-03-15T08:46:56.381Z,7.86
2019-03-15T08:49:26.734Z,8.04
2019-03-15T08:52:03.683Z,8.10
2019-03-15T08:54:29.041Z,8.09
2019-03-15T08:57:00.356Z,8.03
2019-03-15T08:59:30.704Z,8.01
2019-03-15T09:02:01.060Z,8.17
2019-03-15T09:04:31.400Z,8.35
2019-03-15T09:07:01.795Z,8.32
2019-03-15T09:09:32.173Z,8.72
2019-03-15T09:12:02.507Z,8.96
2019-03-15T09:14:32.912Z,8.61
2019-03-15T09:17:03.242Z,8.68
2019-03-15T09:19:33.559Z,8.63
2019-03-15T09:22:03.904Z,9.00
2019-03-15T09:24:34.294Z,8.93
2019-03-15T09:27:04.642Z,9.05
2019-03-15T09:29:35.002Z,9.04
2019-03-15T09:32:09.019Z,9.05
2019-03-15T09:34:38.879Z,9.03
2019-03-15T09:37:10.379Z,8.93
2019-03-15T09:39:40.738Z,8.87
2019-03-15T09:42:11.079Z,9.17
2019-03-15T09:44:41.436Z,9.30
2019-03-15T09:47:11.776Z,9.27
2019-03-15T09:49:42.160Z,9.18
2019-03-15T09:52:12.594Z,9.30
2019-03-15T09:54:42.914Z,9.61
2019-03-15T09:57:13.287Z,9.92
2019-03-15T09:59:43.701Z,9.88
2019-03-15T10:02:14.044Z,9.91
2019-03-15T10:04:44.422Z,10.05
2019-03-15T10:07:14.887Z,10.04
2019-03-15T10:09:46.371Z,10.05
2019-03-15T10:12:16.860Z,9.71
2019-03-15T10:14:47.214Z,9.64
2019-03-15T10:17:17.556Z,9.69
2019-03-15T10:19:47.889Z,9.88
2019-03-15T10:22:18.263Z,10.04
2019-03-15T10:24:48.588Z,9.80
2019-03-15T10:27:19.153Z,10.00
2019-03-15T10:29:49.516Z,10.05
2019-03-15T10:32:19.867Z,10.20
2019-03-15T10:34:50.254Z,10.29
2019-03-15T10:37:20.620Z,10.24
2019-03-15T10:39:50.987Z,10.18
2019-03-15T10:42:22.301Z,10.12
2019-03-15T10:44:52.743Z,10.08
2019-03-15T10:47:23.153Z,10.17
2019-03-15T10:49:53.517Z,9.92
2019-03-15T10:52:23.868Z,10.01
2019-03-15T10:54:54.217Z,9.81
2019-03-15T10:57:24.688Z,10.24
2019-03-15T10:59:56.513Z,10.58
2019-03-15T11:02:26.865Z,10.53
2019-03-15T11:04:57.328Z,10.11
2019-03-15T11:07:27.842Z,9.88
2019-03-15T11:09:58.179Z,9.70
2019-03-15T11:12:28.536Z,10.07
2019-03-15T11:14:59.299Z,10.16
2019-03-15T11:17:29.658Z,10.64
2019-03-15T11:20:00.011Z,10.94
2019-03-15T11:22:30.367Z,11.19
2019-03-15T11:25:00.722Z,11.24
2019-03-15T11:27:31.044Z,11.42
2019-03-15T11:30:01.377Z,11.28
2019-03-15T11:32:31.763Z,10.95
2019-03-15T11:35:04.857Z,11.03
2019-03-15T11:37:35.196Z,10.90
2019-03-15T11:40:13.803Z,10.60
2019-03-15T11:42:43.497Z,10.23
2019-03-15T11:45:14.156Z,9.80
2019-03-15T11:48:01.716Z,9.38
2019-03-15T11:50:18.945Z,9.58
2019-03-15T11:52:49.352Z,10.11
2019-03-15T11:55:19.714Z,10.54
2019-03-15T11:57:50.069Z,10.57
2019-03-15T12:00:20.491Z,10.72
2019-03-15T12:02:50.856Z,10.48
2019-03-15T12:05:21.228Z,10.51
2019-03-15T12:07:51.642Z,10.43
2019-03-15T12:10:21.958Z,10.25
2019-03-15T12:12:52.312Z,10.37
2019-03-15T12:15:23.555Z,10.76
2019-03-15T12:17:53.904Z,10.82
2019-03-15T12:20:24.267Z,10.67
2019-03-15T12:22:54.611Z,10.38
2019-03-15T12:25:24.960Z,10.11
2019-03-15T12:27:55.306Z,9.53
2019-03-15T12:30:25.693Z,9.39
2019-03-15T12:32:55.981Z,9.39
2019-03-15T12:35:26.368Z,9.61
2019-03-15T12:37:56.704Z,9.80
2019-03-15T12:40:27.066Z,9.98
2019-03-15T12:42:57.417Z,10.49
2019-03-15T12:45:27.776Z,10.46
2019-03-15T12:47:58.119Z,11.03
2019-03-15T12:50:28.558Z,11.11
2019-03-15T12:52:58.969Z,11.14
2019-03-15T12:55:29.370Z,11.14
2019-03-15T12:57:59.797Z,11.20
2019-03-15T13:00:30.146Z,11.11
2019-03-15T13:03:00.525Z,11.24
2019-03-15T13:05:30.904Z,11.51
2019-03-15T13:08:01.292Z,11.44
2019-03-15T13:10:31.901Z,11.27
2019-03-15T13:13:02.282Z,11.38
2019-03-15T13:15:32.672Z,11.43
2019-03-15T13:18:03.086Z,11.07
2019-03-15T13:20:33.461Z,10.82
2019-03-15T13:23:03.818Z,10.83
2019-03-15T13:25:34.182Z,11.10
2019-03-15T13:28:04.533Z,11.39
2019-03-15T13:30:35.062Z,11.33
2019-03-15T13:33:19.293Z,11.36
2019-03-15T13:35:37.682Z,11.33
2019-03-15T13:38:08.011Z,11.28
2019-03-15T13:40:38.371Z,11.48
2019-03-15T13:43:08.709Z,11.20
2019-03-15T13:45:40.363Z,11.11
2019-03-15T13:48:10.843Z,11.10
2019-03-15T13:50:41.204Z,11.06
2019-03-15T13:53:13.220Z,10.92
2019-03-15T13:55:43.979Z,10.91
2019-03-15T13:58:14.374Z,11.33
2019-03-15T14:00:45.419Z,11.87
2019-03-15T14:03:15.805Z,12.30
2019-03-15T14:05:48.544Z,12.70
2019-03-15T14:08:18.943Z,12.69
2019-03-15T14:10:49.962Z,12.75
2019-03-15T14:13:20.456Z,12.42
2019-03-15T14:15:54.165Z,11.76
2019-03-15T14:18:24.590Z,11.63
2019-03-15T14:20:54.954Z,11.52
2019-03-15T14:23:25.291Z,11.31
2019-03-15T14:25:57.123Z,11.18
2019-03-15T14:28:28.335Z,11.20
2019-03-15T14:30:58.715Z,11.16
2019-03-15T14:33:29.085Z,11.17
2019-03-15T14:35:59.446Z,11.26
2019-03-15T14:38:29.853Z,11.17
2019-03-15T14:41:00.127Z,11.37
2019-03-15T14:43:30.573Z,11.18
2019-03-15T14:46:01.411Z,11.12
2019-03-15T14:48:31.761Z,10.99
2019-03-15T14:51:02.111Z,11.11
2019-03-15T14:53:32.469Z,11.28
2019-03-15T14:56:02.846Z,11.26
2019-03-15T14:58:33.186Z,11.27
2019-03-15T15:01:03.666Z,11.35
2019-03-15T15:03:33.854Z,11.11
2019-03-15T15:06:04.213Z,11.19
2019-03-15T15:08:34.576Z,11.18
2019-03-15T15:11:04.855Z,10.94
2019-03-15T15:13:35.332Z,10.96
2019-03-15T15:16:05.688Z,10.91
2019-03-15T15:18:37.620Z,11.07
2019-03-15T15:21:07.995Z,11.01
2019-03-15T15:23:38.835Z,10.87
2019-03-15T15:26:09.173Z,10.78
2019-03-15T15:28:39.550Z,10.84
2019-03-15T15:31:10.213Z,10.81
2019-03-15T15:33:40.552Z,10.99
2019-03-15T15:36:10.924Z,10.99
2019-03-15T15:38:42.686Z,11.05
2019-03-15T15:41:13.044Z,11.07
2019-03-15T15:43:43.406Z,10.89
2019-03-15T15:46:13.774Z,10.98
2019-03-15T15:48:44.156Z,10.99
2019-03-15T15:51:14.527Z,11.10
2019-03-15T15:53:44.981Z,11.04
2019-03-15T15:56:15.358Z,10.95
2019-03-15T15:58:45.890Z,10.81
2019-03-15T16:01:16.286Z,10.79
2019-03-15T16:03:46.978Z,10.86
2019-03-15T16:06:17.279Z,10.81
2019-03-15T16:08:47.684Z,10.80
2019-03-15T16:11:18.237Z,10.70
2019-03-15T16:13:48.641Z,10.76
2019-03-15T16:16:19.158Z,10.71
2019-03-15T16:18:49.674Z,10.64
2019-03-15T16:21:20.332Z,10.57
2019-03-15T16:23:50.797Z,10.31
2019-03-15T16:26:21.212Z,10.19
2019-03-15T16:28:51.588Z,10.07
2019-03-15T16:31:21.963Z,10.04
2019-03-15T16:33:52.546Z,10.04
2019-03-15T16:36:24.531Z,10.11
2019-03-15T16:38:54.923Z,10.13
2019-03-15T16:41:25.281Z,10.08
2019-03-15T16:43:55.617Z,10.04
2019-03-15T16:46:25.982Z,9.91
2019-03-15T16:48:57.406Z,9.81
2019-03-15T16:51:27.756Z,9.70
2019-03-15T16:53:58.110Z,9.64
2019-03-15T16:56:28.445Z,9.46
2019-03-15T16:58:58.815Z,9.39
2019-03-15T17:01:29.205Z,9.42
2019-03-15T17:03:59.630Z,9.37
2019-03-15T17:06:30.553Z,9.24
2019-03-15T17:09:02.526Z,9.24
2019-03-15T17:11:34.456Z,9.13
2019-03-15T17:14:04.811Z,8.96
2019-03-15T17:16:35.143Z,9.06
2019-03-15T17:19:05.645Z,8.96
2019-03-15T17:21:36.009Z,8.93
2019-03-15T17:24:06.404Z,9.16
2019-03-15T17:26:37.669Z,9.71
2019-03-15T17:29:07.982Z,9.65
2019-03-15T17:31:38.552Z,9.83
2019-03-15T17:34:09.325Z,9.71
2019-03-15T17:36:39.816Z,9.59
2019-03-15T17:39:10.360Z,9.49
2019-03-15T17:41:41.094Z,9.37
2019-03-15T17:44:12.455Z,9.22
2019-03-15T17:46:42.842Z,9.25
2019-03-15T17:49:13.358Z,9.07
2019-03-15T17:51:43.690Z,8.84
2019-03-15T17:54:15.664Z,8.87
2019-03-15T17:56:46.016Z,8.70
2019-03-15T17:59:16.306Z,8.85
2019-03-15T18:01:46.648Z,8.79
2019-03-15T18:04:17.045Z,8.65
2019-03-15T18:06:47.382Z,8.88
2019-03-15T18:09:17.738Z,8.85
2019-03-15T18:11:48.077Z,8.90
2019-03-15T18:14:18.420Z,9.00
2019-03-15T18:16:49.841Z,9.03
2019-03-15T18:19:20.192Z,8.85
2019-03-15T18:21:50.584Z,8.85
2019-03-15T18:24:21.635Z,8.88
2019-03-15T18:26:52.077Z,9.03
2019-03-15T18:29:26.485Z,8.92
2019-03-15T18:31:54.759Z,9.08
2019-03-15T18:34:26.186Z,8.95
2019-03-15T18:36:56.547Z,8.91
2019-03-15T18:39:26.910Z,8.85
2019-03-15T18:41:57.270Z,9.03
2019-03-15T18:44:27.618Z,8.95
2019-03-15T18:46:58.306Z,8.88
2019-03-15T18:49:28.735Z,8.94
2019-03-15T18:52:00.705Z,8.97
2019-03-15T18:54:31.427Z,8.97
2019-03-15T18:57:01.863Z,9.04
2019-03-15T18:59:40.007Z,9.18
2019-03-15T19:02:05.697Z,9.18
2019-03-15T19:04:36.479Z,9.03
2019-03-15T19:07:08.112Z,8.85
2019-03-15T19:09:39.101Z,8.99
2019-03-15T19:12:09.633Z,8.96
2019-03-15T19:14:40.696Z,9.00
2019-03-15T19:17:11.717Z,9.02
2019-03-15T19:19:43.995Z,9.07
2019-03-15T19:22:15.020Z,8.95
2019-03-15T19:24:47.146Z,8.95
2019-03-15T19:27:17.839Z,8.88
2019-03-15T19:29:53.927Z,8.89
2019-03-15T19:32:22.023Z,8.91
2019-03-15T19:34:52.396Z,8.87
2019-03-15T19:37:22.762Z,9.04
2019-03-15T19:39:53.110Z,8.97
2019-03-15T19:42:23.550Z,8.93
2019-03-15T19:44:53.939Z,8.91
2019-03-15T19:47:25.654Z,8.84
2019-03-15T19:49:59.022Z,8.79
2019-03-15T19:52:31.205Z,8.83
2019-03-15T19:55:02.665Z,8.81
2019-03-15T19:57:33.099Z,8.70
2019-03-15T20:00:08.012Z,8.82
2019-03-15T20:02:37.381Z,8.72
2019-03-15T20:05:08.202Z,8.73
2019-03-15T20:07:38.646Z,8.69
2019-03-15T20:10:11.533Z,8.74
2019-03-15T20:12:41.929Z,8.77
2019-03-15T20:15:14.739Z,8.76
2019-03-15T20:17:46.456Z,8.75
2019-03-15T20:20:18.187Z,8.73
2019-03-15T20:22:51.218Z,8.75
2019-03-15T20:25:21.633Z,8.85
2019-03-15T20:27:51.960Z,8.75
2019-03-15T20:30:26.600Z,8.69
2019-03-15T20:32:56.509Z,8.75
2019-03-15T20:35:28.564Z,8.71
2019-03-15T20:37:58.896Z,8.64
2019-03-15T20:40:29.284Z,8.69
2019-03-15T20:42:59.615Z,8.62
2019-03-15T20:45:30.559Z,8.61
2019-03-15T20:48:00.906Z,8.61
2019-03-15T20:50:31.197Z,8.63
2019-03-15T20:53:08.693Z,8.63
2019-03-15T20:55:34.020Z,8.60
2019-03-15T20:58:05.810Z,8.65
2019-03-15T21:00:36.480Z,8.57
2019-03-15T21:03:07.468Z,8.60
2019-03-15T21:05:37.855Z,8.61
2019-03-15T21:08:08.488Z,8.56
2019-03-15T21:10:39.231Z,8.56
2019-03-15T21:13:09.965Z,8.51
2019-03-15T21:15:40.900Z,8.46
2019-03-15T21:18:13.490Z,8.42
2019-03-15T21:20:44.622Z,8.43
2019-03-15T21:23:15.678Z,8.45
2019-03-15T21:25:46.772Z,8.47
2019-03-15T21:28:17.691Z,8.43
2019-03-15T21:30:49.013Z,8.40
2019-03-15T21:33:19.538Z,8.42
2019-03-15T21:35:50.492Z,8.40
2019-03-15T21:38:20.844Z,8.33
2019-03-15T21:40:51.775Z,8.24
2019-03-15T21:43:22.154Z,8.34
2019-03-15T21:45:53.183Z,8.37
2019-03-15T21:48:25.015Z,8.33
2019-03-15T21:50:55.879Z,8.35
2019-03-15T21:53:26.519Z,8.24
2019-03-15T21:55:56.866Z,8.10
2019-03-15T21:58:27.222Z,7.89
2019-03-15T22:01:02.513Z,7.68
2019-03-15T22:03:29.620Z,7.71
2019-03-15T22:06:00.001Z,7.55
2019-03-15T22:08:31.334Z,7.59
2019-03-15T22:11:01.669Z,7.56
2019-03-15T22:13:32.018Z,7.52
2019-03-15T22:16:02.364Z,7.45
2019-03-15T22:18:32.744Z,7.44
2019-03-15T22:21:03.110Z,7.43
2019-03-15T22:23:33.488Z,7.46
2019-03-15T22:26:03.896Z,7.37
2019-03-15T22:28:34.387Z,7.44
2019-03-15T22:31:16.079Z,7.40
2019-03-15T22:33:36.861Z,7.31
2019-03-15T22:36:07.132Z,7.32
2019-03-15T22:38:37.495Z,7.39
2019-03-15T22:41:07.859Z,7.44
2019-03-15T22:43:38.219Z,7.36
2019-03-15T22:46:08.651Z,7.47
2019-03-15T22:48:39.046Z,7.46
2019-03-15T22:51:09.356Z,7.50
2019-03-15T22:53:39.697Z,7.64
2019-03-15T22:56:10.005Z,7.65
2019-03-15T22:58:40.349Z,7.73
2019-03-15T23:01:10.772Z,7.69
2019-03-15T23:03:41.145Z,7.68
2019-03-15T23:06:12.452Z,7.72
2019-03-15T23:08:42.714Z,7.71
2019-03-15T23:11:13.209Z,7.67
2019-03-15T23:13:43.536Z,7.81
2019-03-15T23:16:13.888Z,7.74
2019-03-15T23:18:44.218Z,7.71
2019-03-15T23:21:14.577Z,7.66
2019-03-15T23:23:44.926Z,7.87
2019-03-15T23:26:15.512Z,7.78
2019-03-15T23:28:47.388Z,7.74
2019-03-15T23:31:17.782Z,7.67
2019-03-15T23:33:48.131Z,7.69
2019-03-15T23:36:18.498Z,7.66
2019-03-15T23:38:50.459Z,7.70
2019-03-15T23:41:20.778Z,7.63
2019-03-15T23:43:51.132Z,7.60
2019-03-15T23:46:21.483Z,7.57
2019-03-15T23:48:51.913Z,7.54
2019-03-15T23:51:22.263Z,7.55
2019-03-15T23:53:52.603Z,7.48
2019-03-15T23:56:22.927Z,7.45
2019-03-15T23:58:53.296Z,7.43
